createdAt,value
2023-05-23T00:03:44.017Z,101044.63
2023-05-23T00:08:46.928Z,101055.00
2023-05-23T00:13:51.662Z,101057.19
2023-05-23T00:18:58.088Z,101056.16
2023-05-23T00:24:03.008Z,101063.28
2023-05-23T00:29:05.822Z,101071.56
2023-05-23T00:34:08.632Z,101070.00
2023-05-23T00:39:20.330Z,101065.72
2023-05-23T00:44:24.216Z,101075.06
2023-05-23T00:49:28.556Z,101073.84
2023-05-23T00:54:31.995Z,101071.44
2023-05-23T00:59:37.628Z,101084.44
2023-05-23T01:04:40.836Z,101095.25
2023-05-23T01:09:43.736Z,101090.47
2023-05-23T01:14:56.958Z,101087.03
2023-05-23T01:20:05.309Z,101089.72
2023-05-23T01:25:42.795Z,101079.25
2023-05-23T01:30:46.976Z,101081.63
2023-05-23T01:35:50.367Z,101082.53
2023-05-23T01:40:54.522Z,101079.78
2023-05-23T01:45:58.423Z,101088.06
2023-05-23T01:51:03.010Z,101091.22
2023-05-23T01:56:05.986Z,101092.59
2023-05-23T02:01:10.275Z,101098.00
2023-05-23T02:06:13.481Z,101102.16
2023-05-23T02:11:16.439Z,101112.84
2023-05-23T02:16:19.467Z,101115.03
2023-05-23T02:21:24.275Z,101110.72
2023-05-23T02:26:28.001Z,101108.47
2023-05-23T02:31:31.996Z,101103.84
2023-05-23T02:36:37.482Z,101095.50
2023-05-23T02:41:40.590Z,101101.09
2023-05-23T02:46:43.641Z,101106.84
2023-05-23T02:51:46.892Z,101102.22
2023-05-23T02:56:52.708Z,101096.56
2023-05-23T03:01:55.984Z,101101.34
2023-05-23T03:07:00.067Z,101104.28
2023-05-23T03:12:03.072Z,101082.97
2023-05-23T03:17:06.239Z,101100.38
2023-05-23T03:22:09.141Z,101096.97
2023-05-23T03:27:12.121Z,101091.91
2023-05-23T03:32:15.346Z,101079.16
2023-05-23T03:37:18.396Z,101079.47
2023-05-23T03:42:21.361Z,101080.53
2023-05-23T03:47:27.688Z,101069.50
2023-05-23T03:52:33.103Z,101072.91
2023-05-23T03:57:36.656Z,101085.06
2023-05-23T04:02:42.428Z,101088.41
2023-05-23T04:07:46.728Z,101091.94
2023-05-23T04:12:52.416Z,101079.84
2023-05-23T04:17:56.758Z,101082.53
2023-05-23T04:23:00.748Z,101078.13
2023-05-23T04:28:06.895Z,101067.78
2023-05-23T04:33:10.599Z,101083.31
2023-05-23T04:38:13.989Z,101064.50
2023-05-23T04:43:17.372Z,101067.16
2023-05-23T04:48:31.835Z,101073.28
2023-05-23T04:53:37.416Z,101072.53
2023-05-23T04:58:44.779Z,101063.94
2023-05-23T05:03:49.794Z,101055.31
2023-05-23T05:08:52.928Z,101065.63
2023-05-23T05:13:57.246Z,101060.44
2023-05-23T05:19:00.495Z,101057.03
2023-05-23T05:24:03.566Z,101039.84
2023-05-23T05:29:06.835Z,101032.22
2023-05-23T05:34:12.189Z,101039.94
2023-05-23T05:39:15.966Z,101027.03
2023-05-23T05:44:19.036Z,101012.41
2023-05-23T05:49:23.027Z,101017.59
2023-05-23T05:54:26.174Z,101019.31
2023-05-23T05:59:31.847Z,101011.53
2023-05-23T06:04:35.687Z,100999.47
2023-05-23T06:09:39.666Z,101000.38
2023-05-23T06:14:43.776Z,100989.16
2023-05-23T06:19:47.011Z,100980.53
2023-05-23T06:24:51.437Z,100993.47
2023-05-23T06:29:55.637Z,100975.34
2023-05-23T06:34:58.663Z,100975.34
2023-05-23T06:40:02.731Z,100956.34
2023-05-23T06:45:08.205Z,100961.50
2023-05-23T06:50:11.756Z,100964.09
2023-05-23T06:55:18.766Z,100963.22
2023-05-23T07:00:23.757Z,100959.75
2023-05-23T07:05:41.702Z,100949.41
2023-05-23T07:10:46.467Z,100957.06
2023-05-23T07:16:01.811Z,100949.34
2023-05-23T07:21:06.966Z,100945.91
2023-05-23T07:26:10.251Z,100950.13
2023-05-23T07:31:22.219Z,100943.25
2023-05-23T07:36:28.133Z,100932.91
2023-05-23T07:41:31.424Z,100933.78
2023-05-23T07:46:34.480Z,100924.25
2023-05-23T07:51:38.124Z,100927.69
2023-05-23T07:56:43.174Z,100928.56
2023-05-23T08:01:46.699Z,100928.56
2023-05-23T08:12:06.389Z,100913.78
2023-05-23T08:17:11.906Z,100916.22
2023-05-23T08:22:15.169Z,100912.81
2023-05-23T08:27:18.148Z,100908.50
2023-05-23T08:32:24.325Z,100924.03
2023-05-23T08:37:27.710Z,100901.59
2023-05-23T08:42:31.042Z,100902.38
2023-05-23T08:47:35.012Z,100898.00
2023-05-23T08:52:45.510Z,100897.88
2023-05-23T08:57:48.766Z,100901.28
2023-05-23T09:03:07.772Z,100883.00
2023-05-23T09:08:26.655Z,100896.69
2023-05-23T09:13:34.908Z,100875.13
2023-05-23T09:18:42.925Z,100873.28
2023-05-23T09:23:49.688Z,100859.44
2023-05-23T09:28:58.134Z,100860.28
2023-05-23T09:34:01.624Z,100860.28
2023-05-23T09:39:06.116Z,100857.63
2023-05-23T09:44:10.032Z,100856.78
2023-05-23T09:49:19.342Z,100850.69
2023-05-23T09:54:23.428Z,100851.59
2023-05-23T09:59:29.405Z,100830.81
2023-05-23T10:04:35.100Z,100848.03
2023-05-23T10:09:40.470Z,100851.66
2023-05-23T10:14:46.078Z,100832.72
2023-05-23T10:20:03.755Z,100840.53
2023-05-23T10:25:10.995Z,100839.63
2023-05-23T10:30:14.394Z,100831.72
2023-05-23T10:35:43.930Z,100838.72
2023-05-23T10:41:14.586Z,100824.78
2023-05-23T10:46:22.099Z,100827.25
2023-05-23T10:51:25.420Z,100810.88
2023-05-23T10:56:32.353Z,100810.88
2023-05-23T11:01:40.074Z,100810.03
2023-05-23T11:06:45.117Z,100800.59
2023-05-23T11:12:08.555Z,100803.16
2023-05-23T11:17:14.374Z,100804.91
2023-05-23T11:22:18.383Z,100793.59
2023-05-23T11:27:28.821Z,100803.09
2023-05-23T11:32:32.342Z,100796.38
2023-05-23T11:37:35.977Z,100796.50
2023-05-23T11:42:45.069Z,100801.63
2023-05-23T11:47:47.995Z,100791.28
2023-05-23T11:52:52.328Z,100797.50
2023-05-23T11:57:57.037Z,100808.84
2023-05-23T12:03:07.688Z,100805.50
2023-05-23T12:08:13.196Z,100802.78
2023-05-23T12:13:16.193Z,100797.59
2023-05-23T12:18:20.717Z,100774.09
2023-05-23T12:23:24.657Z,100783.09
2023-05-23T12:28:38.419Z,100774.91
2023-05-23T12:33:45.638Z,100786.94
2023-05-23T12:38:48.753Z,100782.38
2023-05-23T12:43:53.211Z,100781.06
2023-05-23T12:48:56.450Z,100780.41
2023-05-23T12:53:59.596Z,100779.84
2023-05-23T12:59:04.000Z,100766.97
2023-05-23T13:04:07.069Z,100768.00
2023-05-23T13:09:10.690Z,100768.06
2023-05-23T13:14:14.494Z,100758.97
2023-05-23T13:19:17.870Z,100753.16
2023-05-23T13:24:21.239Z,100762.88
2023-05-23T13:29:24.315Z,100755.09
2023-05-23T13:34:28.838Z,100755.75
2023-05-23T13:39:32.098Z,100756.84
2023-05-23T13:44:35.076Z,100759.03
2023-05-23T13:49:38.080Z,100755.31
2023-05-23T13:54:42.066Z,100761.13
2023-05-23T13:59:45.073Z,100748.81
2023-05-23T14:04:49.504Z,100751.16
2023-05-23T14:09:52.471Z,100744.94
2023-05-23T14:14:55.522Z,100738.50
2023-05-23T14:19:59.327Z,100743.22
2023-05-23T14:25:02.294Z,100756.16
2023-05-23T14:30:07.252Z,100757.13
2023-05-23T14:35:11.806Z,100761.38
2023-05-23T14:40:16.643Z,100768.06
2023-05-23T14:45:20.109Z,100776.44
2023-05-23T14:50:23.333Z,100783.91
2023-05-23T14:55:26.654Z,100784.47
2023-05-23T15:00:29.574Z,100782.50
2023-05-23T15:05:32.675Z,100778.06
2023-05-23T15:10:36.001Z,100778.75
2023-05-23T15:15:39.307Z,100778.56
2023-05-23T15:20:43.044Z,100772.47
2023-05-23T15:25:49.982Z,100776.69
2023-05-23T15:30:54.112Z,100777.34
2023-05-23T15:35:59.266Z,100774.66
2023-05-23T15:41:02.920Z,100769.44
2023-05-23T15:46:06.040Z,100770.97
2023-05-23T15:51:09.197Z,100762.44
2023-05-23T15:56:12.218Z,100763.16
2023-05-23T16:01:15.339Z,100763.00
2023-05-23T16:06:19.673Z,100755.34
2023-05-23T16:11:23.290Z,100762.91
2023-05-23T16:16:26.300Z,100750.09
2023-05-23T16:21:29.369Z,100738.81
2023-05-23T16:26:32.336Z,100743.94
2023-05-23T16:31:36.081Z,100755.66
2023-05-23T16:36:39.077Z,100750.34
2023-05-23T16:41:42.161Z,100739.41
2023-05-23T16:46:45.384Z,100743.38
2023-05-23T16:51:48.914Z,100736.44
2023-05-23T16:56:51.820Z,100732.78
2023-05-23T17:01:54.878Z,100727.63
2023-05-23T17:06:57.953Z,100732.66
2023-05-23T17:12:00.969Z,100723.00
2023-05-23T17:17:05.732Z,100732.22
2023-05-23T17:22:08.760Z,100727.69
2023-05-23T17:27:11.633Z,100732.03
2023-05-23T17:32:14.736Z,100724.13
2023-05-23T17:37:17.752Z,100729.16
2023-05-23T17:42:21.088Z,100720.41
2023-05-23T17:47:24.251Z,100715.78
2023-05-23T17:52:29.345Z,100713.00
2023-05-23T17:57:32.424Z,100705.97
2023-05-23T18:02:35.423Z,100697.03
2023-05-23T18:07:38.603Z,100698.50
2023-05-23T18:12:41.605Z,100692.53
2023-05-23T18:17:44.766Z,100687.69
2023-05-23T18:22:53.150Z,100684.50
2023-05-23T18:27:58.781Z,100676.91
2023-05-23T18:33:01.809Z,100675.91
2023-05-23T18:38:04.870Z,100672.56
2023-05-23T18:43:07.782Z,100658.00
2023-05-23T18:48:11.082Z,100669.31
2023-05-23T18:53:14.325Z,100658.75
2023-05-23T18:58:17.359Z,100654.28
2023-05-23T19:03:20.689Z,100643.97
2023-05-23T19:08:23.869Z,100641.84
2023-05-23T19:13:27.769Z,100645.44
2023-05-23T19:18:30.904Z,100642.19
2023-05-23T19:23:34.562Z,100645.66
2023-05-23T19:28:37.532Z,100642.59
2023-05-23T19:33:40.657Z,100640.00
2023-05-23T19:38:43.632Z,100637.53
2023-05-23T19:43:46.604Z,100633.47
2023-05-23T19:48:49.983Z,100630.41
2023-05-23T19:53:54.953Z,100623.34
2023-05-23T19:58:58.092Z,100609.78
2023-05-23T20:04:01.331Z,100610.09
2023-05-23T20:09:04.518Z,100606.81
2023-05-23T20:14:07.594Z,100605.06
2023-05-23T20:19:10.766Z,100600.78
2023-05-23T20:24:15.407Z,100603.16
2023-05-23T20:29:18.451Z,100597.84
2023-05-23T20:34:21.412Z,100619.94
2023-05-23T20:39:24.645Z,100616.47
2023-05-23T20:44:28.729Z,100624.94
2023-05-23T20:49:31.744Z,100629.91
2023-05-23T20:54:35.838Z,100627.59
2023-05-23T20:59:38.886Z,100624.03
2023-05-23T21:04:41.772Z,100634.56
2023-05-23T21:09:44.831Z,100637.97
2023-05-23T21:14:47.733Z,100638.38
2023-05-23T21:19:50.750Z,100638.91
2023-05-23T21:24:53.736Z,100645.78
2023-05-23T21:29:57.109Z,100644.09
2023-05-23T21:35:00.048Z,100652.66
2023-05-23T21:40:03.252Z,100653.38
2023-05-23T21:45:08.374Z,100657.25
2023-05-23T21:50:11.792Z,100661.31
2023-05-23T21:55:14.765Z,100660.47
2023-05-23T22:00:19.564Z,100664.22
2023-05-23T22:05:22.685Z,100667.88
2023-05-23T22:10:25.598Z,100670.34
2023-05-23T22:15:28.615Z,100671.75
2023-05-23T22:20:31.579Z,100673.44
2023-05-23T22:25:35.571Z,100673.72
2023-05-23T22:30:38.733Z,100676.41
2023-05-23T22:35:42.223Z,100685.16
2023-05-23T22:40:45.156Z,100695.50
2023-05-23T22:45:50.374Z,100697.06
2023-05-23T22:50:57.479Z,100698.59
2023-05-23T22:56:00.362Z,100702.00
2023-05-23T23:01:03.334Z,100703.63
2023-05-23T23:06:06.782Z,100707.09
2023-05-23T23:11:09.719Z,100715.59
2023-05-23T23:16:13.594Z,100705.53
2023-05-23T23:21:16.564Z,100723.75
2023-05-23T23:26:19.601Z,100728.19
2023-05-23T23:31:22.626Z,100737.69
2023-05-23T23:36:25.634Z,100741.22
2023-05-23T23:41:28.639Z,100741.41
2023-05-23T23:46:31.658Z,100748.44
2023-05-23T23:51:34.646Z,100759.75
2023-05-23T23:56:37.689Z,100758.81
